Time;durP1;ratioP1;P1;durP2;ratioP2;P2;SDS_P1;SDS_P2;PMS_P1;PMS_P2;Temp;Humidity;BMP_temperature;BMP_pressure;BME280_temperature;BME280_humidity;BME280_pressure;Samples;Min_cycle;Max_cycle;Signal;HPM_P1;HPM_P2
2023/06/26 00:01:31;;;;;;;7.90;6.15;;;;;;;26.41;45.31;100077.34;5031591;28;20715;-64
2023/06/26 00:04:00;;;;;;;9.50;6.60;;;;;;;26.40;45.64;100078.41;5031719;28;20053;-64
2023/06/26 00:06:29;;;;;;;8.30;6.25;;;;;;;26.40;45.45;100081.97;5031491;28;20045;-64
2023/06/26 00:08:59;;;;;;;8.02;6.30;;;;;;;26.41;45.47;100077.34;5031430;28;20427;-64
2023/06/26 00:11:30;;;;;;;8.70;6.63;;;;;;;26.39;45.59;100077.56;5031732;28;20046;-64
2023/06/26 00:14:01;;;;;;;8.02;6.28;;;;;;;26.38;45.88;100083.22;5031539;28;20128;-64
2023/06/26 00:16:30;;;;;;;9.27;6.50;;;;;;;26.38;45.77;100083.22;5031533;28;20045;-64
2023/06/26 00:18:59;;;;;;;8.20;6.43;;;;;;;26.37;46.36;100081.50;5031305;28;20383;-64
2023/06/26 00:21:28;;;;;;;7.85;6.15;;;;;;;26.36;45.65;100079.81;5031442;28;20049;-64
2023/06/26 00:23:56;;;;;;;9.68;6.38;;;;;;;26.36;45.78;100079.81;5031435;28;20142;-64
2023/06/26 00:26:25;;;;;;;9.43;6.72;;;;;;;26.35;46.06;100078.13;5031458;28;20132;-64
2023/06/26 00:28:53;;;;;;;8.13;5.85;;;;;;;26.33;45.95;100085.66;5031309;28;20060;-64
2023/06/26 00:31:22;;;;;;;8.30;6.40;;;;;;;26.32;45.88;100078.50;5031326;28;20049;-64
2023/06/26 00:33:50;;;;;;;8.18;6.50;;;;;;;26.32;45.83;100083.97;5035039;28;20045;-64
2023/06/26 00:36:18;;;;;;;8.20;6.57;;;;;;;26.32;46.26;100078.50;5035507;28;20112;-64
2023/06/26 00:38:47;;;;;;;9.73;6.30;;;;;;;26.30;46.15;100091.53;5035324;28;20053;-64
2023/06/26 00:41:15;;;;;;;8.77;6.03;;;;;;;26.29;46.44;100084.38;5035231;28;20049;-64
2023/06/26 00:43:43;;;;;;;8.60;6.38;;;;;;;26.26;46.32;100082.91;5035182;28;20128;-64
2023/06/26 00:46:13;;;;;;;8.43;6.50;;;;;;;26.24;46.27;100082.22;5035006;28;20045;-64
2023/06/26 00:48:44;;;;;;;8.25;6.20;;;;;;;26.21;46.59;100080.75;5034940;28;20091;-64
2023/06/26 00:51:13;;;;;;;8.38;6.03;;;;;;;26.19;47.23;100080.09;5034629;28;20498;-65
2023/06/26 00:53:43;;;;;;;13.82;6.75;;;;;;;26.16;47.45;100080.50;5035008;28;20049;-65
2023/06/26 00:56:12;;;;;;;9.93;6.65;;;;;;;26.10;47.47;100080.44;5034943;28;20049;-64
2023/06/26 00:58:40;;;;;;;8.63;6.00;;;;;;;26.07;47.13;100081.69;5034695;28;20491;-65
2023/06/26 01:01:15;;;;;;;8.75;6.50;;;;;;;26.06;47.31;100084.63;5034696;28;20046;-65
2023/06/26 01:03:46;;;;;;;8.43;6.18;;;;;;;26.04;47.53;100073.88;5034842;28;20042;-65
2023/06/26 01:06:15;;;;;;;9.15;6.40;;;;;;;26.03;48.10;100074.91;5034803;28;20045;-66
2023/06/26 01:08:45;;;;;;;7.93;6.72;;;;;;;26.01;47.94;100076.16;5034681;28;20053;-65
2023/06/26 01:11:14;;;;;;;9.25;6.43;;;;;;;25.98;48.12;100076.56;5034689;28;20128;-65
2023/06/26 01:13:44;;;;;;;9.35;6.20;;;;;;;25.95;47.95;100067.69;5034471;28;20053;-65
2023/06/26 01:16:13;;;;;;;8.68;6.10;;;;;;;25.94;48.36;100070.63;5034685;28;20071;-65
2023/06/26 01:18:43;;;;;;;10.90;6.40;;;;;;;25.96;48.11;100068.53;5034442;28;20096;-63
2023/06/26 01:21:14;;;;;;;7.82;6.22;;;;;;;25.95;47.90;100055.91;5034418;28;20052;-64
2023/06/26 01:23:58;;;;;;;8.57;6.30;;;;;;;25.96;47.78;100065.81;5034459;28;20041;-65
2023/06/26 01:26:30;;;;;;;8.07;5.85;;;;;;;25.94;48.17;100071.47;5034639;28;20045;-65
2023/06/26 01:29:00;;;;;;;;;;;;;;;25.94;48.06;100066.00;5034852;28;20121;-65
2023/06/26 01:31:30;;;;;;;9.70;6.40;;;;;;;25.93;48.62;100058.00;5034422;28;20516;-65
2023/06/26 01:33:59;;;;;;;8.00;6.10;;;;;;;25.92;48.40;100059.06;5034283;28;20045;-65
2023/06/26 01:36:28;;;;;;;8.23;6.35;;;;;;;25.91;48.54;100054.63;5034120;28;20521;-65
2023/06/26 01:38:56;;;;;;;8.43;6.60;;;;;;;25.88;48.65;100055.03;5034272;28;20494;-66
2023/06/26 01:41:24;;;;;;;7.78;5.78;;;;;;;25.88;48.41;100058.59;5033898;28;20083;-65
2023/06/26 01:44:09;;;;;;;9.07;6.05;;;;;;;25.88;48.63;100055.03;5033408;28;20430;-65
2023/06/26 01:46:41;;;;;;;8.35;5.97;;;;;;;25.87;48.81;100054.19;5033982;28;20056;-65
2023/06/26 01:49:16;;;;;;;10.38;6.70;;;;;;;25.88;48.92;100057.78;5033772;28;20463;-65
2023/06/26 01:51:56;;;;;;;9.00;6.13;;;;;;;25.87;48.82;100047.88;5033880;28;20054;-64
2023/06/26 01:54:26;;;;;;;10.88;6.40;;;;;;;25.86;49.03;100057.09;5033973;28;20063;-65
2023/06/26 01:56:55;;;;;;;9.63;6.30;;;;;;;25.84;49.39;100061.91;5033815;28;20122;-65
2023/06/26 01:59:26;;;;;;;8.95;6.18;;;;;;;25.81;49.26;100056.84;5033698;28;20566;-65
2023/06/26 02:01:55;;;;;;;8.05;6.13;;;;;;;25.79;49.72;100061.66;5033525;28;20535;-64
2023/06/26 02:04:23;;;;;;;8.27;5.93;;;;;;;25.76;49.71;100056.56;5033554;28;20061;-65
2023/06/26 02:06:51;;;;;;;7.95;5.95;;;;;;;25.73;49.58;100059.72;5033460;28;20551;-65
2023/06/26 02:09:20;;;;;;;8.82;6.18;;;;;;;25.69;49.60;100056.50;5033775;28;20050;-64
2023/06/26 02:11:48;;;;;;;8.40;6.40;;;;;;;25.69;50.08;100065.53;5033570;28;20099;-65
2023/06/26 02:14:16;;;;;;;8.68;5.93;;;;;;;25.68;49.88;100066.59;5033411;28;20053;-65
2023/06/26 02:16:45;;;;;;;8.45;6.53;;;;;;;25.63;50.25;100069.03;5033341;28;20136;-65
2023/06/26 02:19:21;;;;;;;8.07;6.30;;;;;;;25.62;50.45;100064.63;5033504;28;20410;-65
2023/06/26 02:21:49;;;;;;;8.38;6.07;;;;;;;25.61;50.47;100068.38;5033312;28;20065;-65
2023/06/26 02:24:18;;;;;;;8.75;6.30;;;;;;;25.58;50.29;100076.97;5033386;28;20049;-65
2023/06/26 02:26:46;;;;;;;8.65;6.63;;;;;;;25.55;50.88;100077.34;5033167;28;20047;-65
2023/06/26 02:29:14;;;;;;;8.82;6.15;;;;;;;25.54;50.79;100075.66;5033334;28;20048;-65
2023/06/26 02:31:43;;;;;;;10.23;6.38;;;;;;;25.54;50.62;100077.53;5033146;28;20049;-64
2023/06/26 02:34:12;;;;;;;10.00;6.35;;;;;;;25.52;50.78;100075.00;5033083;28;20104;-65
2023/06/26 02:36:40;;;;;;;7.85;6.03;;;;;;;25.52;50.92;100077.75;5033100;28;20081;-65
2023/06/26 02:39:08;;;;;;;7.53;5.75;;;;;;;25.51;50.88;100081.50;5032803;28;20516;-65
2023/06/26 02:41:37;;;;;;;9.02;5.95;;;;;;;25.52;50.60;100085.09;5032817;28;20053;-65
2023/06/26 02:44:05;;;;;;;7.63;6.10;;;;;;;25.51;50.54;100089.72;5033218;28;20041;-65
2023/06/26 02:46:33;;;;;;;8.15;6.20;;;;;;;25.52;50.57;100087.81;5032683;28;20513;-65
2023/06/26 02:49:01;;;;;;;7.97;5.95;;;;;;;25.50;50.44;100085.28;5032985;28;20056;-64
2023/06/26 02:51:32;;;;;;;7.80;5.88;;;;;;;25.49;50.58;100089.06;5032678;28;20064;-65
2023/06/26 02:54:01;;;;;;;8.20;6.20;;;;;;;25.48;50.77;100081.91;5032692;28;20076;-65
2023/06/26 02:56:29;;;;;;;8.25;6.15;;;;;;;25.45;50.76;100082.28;5031886;28;20053;-64
2023/06/26 02:58:57;;;;;;;9.45;6.70;;;;;;;25.42;50.51;100087.28;5032830;28;20132;-64
2023/06/26 03:01:26;;;;;;;7.93;6.10;;;;;;;25.40;50.80;100082.88;5032578;28;20057;-64
2023/06/26 03:03:55;;;;;;;8.63;6.30;;;;;;;25.41;50.70;100086.44;5032652;28;20053;-64
2023/06/26 03:06:23;;;;;;;12.07;6.50;;;;;;;25.40;50.65;100085.59;5032259;28;20128;-64
2023/06/26 03:08:53;;;;;;;8.50;6.10;;;;;;;25.40;50.54;100090.22;5032666;28;20041;-64
2023/06/26 03:11:22;;;;;;;8.27;6.07;;;;;;;25.40;50.74;100090.22;5032491;28;20115;-63
2023/06/26 03:13:50;;;;;;;8.32;6.20;;;;;;;25.37;50.43;100080.50;5032259;28;20531;-64
2023/06/26 03:16:18;;;;;;;8.65;5.93;;;;;;;25.36;50.71;100094.34;5032298;28;20103;-65
2023/06/26 03:18:46;;;;;;;9.93;6.65;;;;;;;25.31;50.66;100085.91;5032149;28;20128;-65
2023/06/26 03:21:15;;;;;;;9.50;6.65;;;;;;;25.27;50.70;100092.75;5031973;28;20049;-65
2023/06/26 03:23:43;;;;;;;8.82;6.10;;;;;;;25.25;50.97;100094.84;5032375;28;20045;-65
2023/06/26 03:26:14;;;;;;;8.23;6.28;;;;;;;25.24;50.82;100101.34;5032145;28;20049;-66
2023/06/26 03:28:43;;;;;;;8.38;5.72;;;;;;;25.25;51.03;100097.56;5032113;28;20059;-65
2023/06/26 03:31:11;;;;;;;9.93;6.05;;;;;;;25.23;50.58;100097.78;5032047;28;20045;-65
2023/06/26 03:33:39;;;;;;;12.68;6.65;;;;;;;25.23;50.58;100091.47;5032073;28;20052;-65
2023/06/26 03:36:07;;;;;;;9.25;6.63;;;;;;;25.22;50.76;100100.69;5032128;28;20053;-65
2023/06/26 03:38:35;;;;;;;7.10;5.78;;;;;;;25.21;50.54;100086.22;5031948;28;20475;-66
2023/06/26 03:41:04;;;;;;;9.15;5.95;;;;;;;25.21;50.73;100090.81;5031813;28;20160;-64
2023/06/26 03:43:33;;;;;;;7.75;6.10;;;;;;;25.21;50.63;100094.41;5014559;28;20116;-64
2023/06/26 03:46:01;;;;;;;14.60;6.60;;;;;;;25.22;50.45;100089.78;5031911;28;20050;-65
2023/06/26 03:48:30;;;;;;;11.73;6.22;;;;;;;25.20;50.66;100095.44;5031602;28;20045;-64
2023/06/26 03:50:58;;;;;;;7.85;6.03;;;;;;;25.18;50.25;100088.44;5031808;28;20080;-63
2023/06/26 03:53:26;;;;;;;7.60;6.00;;;;;;;25.17;50.38;100098.53;5031427;28;20097;-65
2023/06/26 03:55:57;;;;;;;9.15;6.10;;;;;;;25.15;50.41;100092.41;5031855;28;20051;-64
2023/06/26 03:58:26;;;;;;;12.52;6.45;;;;;;;25.15;50.19;100092.41;5031731;28;20049;-64
2023/06/26 04:00:56;;;;;;;8.57;6.13;;;;;;;25.16;50.29;100093.25;5031476;28;20042;-65
2023/06/26 04:03:25;;;;;;;9.15;6.18;;;;;;;25.16;50.21;100093.25;5031597;28;20049;-65
2023/06/26 04:05:53;;;;;;;7.65;6.20;;;;;;;25.18;50.13;100102.09;5031559;28;20046;-64
2023/06/26 04:08:21;;;;;;;10.27;6.38;;;;;;;25.18;50.09;100102.94;5031193;28;20497;-66
2023/06/26 04:10:52;;;;;;;9.82;6.88;;;;;;;25.17;50.02;100101.25;5031545;28;20045;-65
2023/06/26 04:13:20;;;;;;;8.65;6.35;;;;;;;25.19;50.40;100098.31;5031433;28;20095;-65
2023/06/26 04:15:49;;;;;;;8.02;5.90;;;;;;;25.22;50.40;100101.53;5031626;28;20477;-65
2023/06/26 04:18:20;;;;;;;7.95;6.13;;;;;;;25.24;50.12;100101.34;5031687;28;20054;-65
2023/06/26 04:21:07;;;;;;;8.27;6.15;;;;;;;25.26;50.22;100102.84;5031619;28;20069;-65
2023/06/26 04:23:36;;;;;;;9.18;6.10;;;;;;;25.29;49.93;100109.81;5031440;28;20076;-65
2023/06/26 04:26:05;;;;;;;8.93;6.13;;;;;;;25.28;50.14;100108.09;5031390;28;20076;-65
2023/06/26 04:28:33;;;;;;;9.35;6.50;;;;;;;25.26;50.14;100110.19;5031574;28;20062;-65
2023/06/26 04:31:03;;;;;;;7.47;6.22;;;;;;;25.24;50.36;100112.25;5031279;28;20053;-65
2023/06/26 04:33:33;;;;;;;9.98;6.35;;;;;;;25.25;50.46;100109.34;5031384;28;20041;-65
2023/06/26 04:36:03;;;;;;;9.88;6.72;;;;;;;25.26;50.10;100113.75;5031437;28;20060;-65
2023/06/26 04:38:32;;;;;;;10.75;6.68;;;;;;;25.28;50.29;100110.84;5031037;28;20479;-64
2023/06/26 04:41:01;;;;;;;8.82;6.13;;;;;;;25.27;49.89;100111.88;5031274;28;20049;-66
2023/06/26 04:43:29;;;;;;;8.43;6.22;;;;;;;25.27;49.99;100111.88;5031220;28;20061;-66
2023/06/26 04:45:57;;;;;;;8.80;6.53;;;;;;;25.27;49.96;100114.59;5030974;28;20164;-66
2023/06/26 04:48:27;;;;;;;9.77;6.80;;;;;;;25.28;49.94;100113.56;5031066;28;20049;-65
2023/06/26 04:50:58;;;;;;;9.57;6.78;;;;;;;25.28;49.75;100110.84;5031000;28;20474;-65
2023/06/26 04:53:26;;;;;;;9.05;6.68;;;;;;;25.30;49.93;100112.34;5030568;28;20490;-66
2023/06/26 04:55:55;;;;;;;10.05;6.28;;;;;;;25.32;49.79;100109.44;5030998;28;20046;-65
2023/06/26 04:58:23;;;;;;;9.10;6.70;;;;;;;25.33;49.89;100111.13;5031062;28;20049;-64
2023/06/26 05:00:51;;;;;;;9.38;6.13;;;;;;;25.36;49.74;100113.47;5030811;28;20046;-64
2023/06/26 05:03:20;;;;;;;10.05;6.22;;;;;;;25.36;49.72;100116.19;5030886;28;20144;-64
2023/06/26 05:05:48;;;;;;;10.00;6.60;;;;;;;25.36;49.93;100118.91;5031263;28;20042;-65
2023/06/26 05:08:19;;;;;;;9.48;6.28;;;;;;;25.38;49.51;100119.56;5031016;28;20457;-65
2023/06/26 05:10:47;;;;;;;8.90;6.47;;;;;;;25.39;49.71;100116.66;5030751;28;20041;-65
2023/06/26 05:13:17;;;;;;;9.45;6.82;;;;;;;25.39;49.83;100116.66;5017235;28;20050;-65
2023/06/26 05:15:46;;;;;;;9.32;6.43;;;;;;;25.38;49.92;100117.72;5010875;28;20096;-66
2023/06/26 05:18:14;;;;;;;9.48;7.28;;;;;;;25.31;49.66;100114.03;5010784;28;20049;-66
2023/06/26 05:20:43;;;;;;;10.10;7.50;;;;;;;25.27;49.59;100118.19;5014384;28;20129;-66
2023/06/26 05:23:12;;;;;;;11.65;7.10;;;;;;;25.26;49.66;100108.31;5014647;28;20054;-66
2023/06/26 05:25:42;;;;;;;8.60;6.82;;;;;;;25.26;49.99;100118.38;5014462;28;20049;-65
2023/06/26 05:28:12;;;;;;;10.07;6.55;;;;;;;25.26;49.88;100111.03;5014428;28;20054;-69
2023/06/26 05:30:42;;;;;;;9.40;6.95;;;;;;;25.25;50.15;100111.22;5014432;28;20450;-65
2023/06/26 05:33:13;;;;;;;9.35;6.97;;;;;;;25.25;50.43;100114.81;5014569;28;20053;-68
2023/06/26 05:35:42;;;;;;;9.98;6.43;;;;;;;25.27;50.36;100111.88;5014535;28;20054;-66
2023/06/26 05:38:13;;;;;;;9.38;6.57;;;;;;;25.26;50.81;100108.31;5013970;28;20144;-66
2023/06/26 05:40:43;;;;;;;12.38;7.03;;;;;;;25.29;51.24;100107.94;5014195;28;20050;-66
2023/06/26 05:43:11;;;;;;;9.10;6.72;;;;;;;25.32;51.11;100120.34;5013926;28;20045;-66
2023/06/26 05:45:42;;;;;;;10.13;6.60;;;;;;;25.35;51.08;100117.22;5014022;28;20046;-66
2023/06/26 05:48:10;;;;;;;11.35;7.40;;;;;;;25.36;50.95;100111.56;5024575;28;20060;-66
2023/06/26 05:50:41;;;;;;;12.18;7.15;;;;;;;25.39;50.77;100121.28;5033194;28;20037;-67
2023/06/26 05:53:10;;;;;;;10.57;6.75;;;;;;;25.41;50.84;100121.94;5030231;28;20052;-66
2023/06/26 05:55:42;;;;;;;11.55;7.03;;;;;;;25.44;50.96;100118.81;5028560;28;20562;-66
2023/06/26 05:58:13;;;;;;;10.70;7.40;;;;;;;25.44;51.45;100113.34;5033195;28;20041;-67
2023/06/26 06:00:41;;;;;;;10.52;6.82;;;;;;;25.47;51.36;100123.88;5033316;28;20046;-65
2023/06/26 06:03:10;;;;;;;8.13;6.38;;;;;;;25.47;51.29;100118.41;5032578;28;20052;-66
2023/06/26 06:05:39;;;;;;;9.23;6.78;;;;;;;25.48;51.09;100120.16;5032816;28;20091;-66
2023/06/26 06:08:07;;;;;;;10.35;6.95;;;;;;;25.50;51.19;100115.31;5031761;28;20107;-66
2023/06/26 06:10:35;;;;;;;8.70;6.68;;;;;;;25.50;51.27;100118.06;5032116;28;20077;-66
2023/06/26 06:13:04;;;;;;;10.40;6.85;;;;;;;25.50;51.02;100112.59;5033233;28;20457;-66
2023/06/26 06:15:34;;;;;;;9.57;6.80;;;;;;;25.48;50.87;100114.69;5031779;28;20041;-66
2023/06/26 06:18:02;;;;;;;9.10;6.68;;;;;;;25.48;50.92;100109.22;5033042;28;20104;-66
2023/06/26 06:20:30;;;;;;;10.20;6.70;;;;;;;25.50;50.92;100112.59;5032655;28;20084;-67
2023/06/26 06:22:58;;;;;;;10.38;6.45;;;;;;;25.51;50.93;100111.56;5032734;28;20072;-67
2023/06/26 06:25:26;;;;;;;8.35;6.32;;;;;;;25.53;51.12;100108.63;5032618;28;20055;-67
2023/06/26 06:27:54;;;;;;;9.48;6.00;;;;;;;25.55;51.36;100114.72;5029986;28;20041;-67
2023/06/26 06:30:23;;;;;;;9.13;5.97;;;;;;;25.56;51.21;100105.50;5032802;28;20049;-67
2023/06/26 06:33:12;;;;;;;11.45;6.82;;;;;;;25.59;51.06;100105.13;5032874;28;20055;-66
2023/06/26 06:35:40;;;;;;;9.57;6.22;;;;;;;25.56;50.54;100109.06;5032889;28;20097;-67
2023/06/26 06:38:08;;;;;;;10.00;5.85;;;;;;;25.55;51.09;100112.84;5032800;28;20507;-66
2023/06/26 06:40:36;;;;;;;9.75;6.38;;;;;;;25.53;50.88;100112.19;5033039;28;20156;-65
2023/06/26 06:43:05;;;;;;;9.77;6.80;;;;;;;25.52;51.08;100110.50;5030035;28;20088;-61
2023/06/26 06:46:11;;;;;;;10.95;6.22;;;;;;;25.54;50.78;100108.44;5020204;28;20799;-64
2023/06/26 06:52:01;;;;;;;9.10;6.18;;;;;;;25.55;50.73;100115.56;5012312;28;20049;-67
2023/06/26 06:54:29;;;;;;;10.18;6.57;;;;;;;25.55;50.64;100115.56;5032430;28;20049;-68
2023/06/26 06:56:57;;;;;;;9.18;6.40;;;;;;;25.48;50.08;100117.41;5032868;28;20446;-66
2023/06/26 06:59:25;;;;;;;11.48;6.47;;;;;;;25.45;50.33;100114.19;5032763;28;20045;-68
2023/06/26 07:01:53;;;;;;;9.20;6.47;;;;;;;25.45;50.66;100114.19;5032600;28;20046;-67
2023/06/26 07:04:23;;;;;;;9.93;6.47;;;;;;;25.48;50.56;100116.53;5032147;28;20052;-67
2023/06/26 07:06:51;;;;;;;10.60;5.90;;;;;;;25.49;50.59;100116.38;5032006;28;20079;-65
2023/06/26 07:09:20;;;;;;;9.23;6.28;;;;;;;25.52;50.47;100112.41;5032106;28;20057;-66
2023/06/26 07:11:48;;;;;;;8.88;6.43;;;;;;;25.51;50.60;100117.00;5032203;28;20045;-68
2023/06/26 07:14:16;;;;;;;9.40;6.53;;;;;;;25.51;50.31;100107.97;5032144;28;20132;-67
2023/06/26 07:16:44;;;;;;;8.32;6.10;;;;;;;25.53;50.39;100112.19;5030856;28;20133;-68
2023/06/26 07:19:13;;;;;;;9.98;6.82;;;;;;;25.55;50.73;100115.56;5030820;28;20049;-67
2023/06/26 07:21:44;;;;;;;10.23;6.15;;;;;;;25.57;50.65;100113.50;5031262;28;20053;-68
2023/06/26 07:24:12;;;;;;;11.93;6.75;;;;;;;25.58;50.48;100109.75;5030804;28;20053;-67
2023/06/26 07:26:40;;;;;;;8.98;6.03;;;;;;;25.57;50.31;100108.03;5031367;28;20046;-67
2023/06/26 07:29:13;;;;;;;12.00;6.65;;;;;;;25.54;49.88;100113.88;5032050;28;20099;-67
2023/06/26 07:31:41;;;;;;;11.15;6.47;;;;;;;25.50;49.71;100106.28;5031906;28;20050;-67
2023/06/26 07:34:10;;;;;;;11.45;6.57;;;;;;;25.49;50.14;100110.91;5031738;28;20046;-67
2023/06/26 07:36:38;;;;;;;9.32;6.35;;;;;;;25.43;49.43;100108.94;5031948;28;20045;-67
2023/06/26 07:39:07;;;;;;;9.95;6.63;;;;;;;25.38;49.45;100105.91;5031977;28;20499;-67
2023/06/26 07:41:41;;;;;;;9.55;6.50;;;;;;;25.42;49.72;100106.41;5031196;28;20136;-67
2023/06/26 07:44:09;;;;;;;8.20;6.38;;;;;;;25.47;50.71;100104.75;5031794;28;20099;-67
2023/06/26 07:46:37;;;;;;;9.20;6.53;;;;;;;25.52;50.50;100110.50;5031559;28;20485;-68
2023/06/26 07:49:05;;;;;;;10.48;6.80;;;;;;;25.54;50.30;100111.16;5032052;28;20045;-67
2023/06/26 07:51:33;;;;;;;10.25;6.63;;;;;;;25.56;50.13;100109.06;5031373;28;20053;-67
2023/06/26 07:54:02;;;;;;;9.98;6.07;;;;;;;25.58;50.21;100104.28;5031696;28;20612;-68
2023/06/26 07:56:31;;;;;;;8.55;6.38;;;;;;;25.63;50.58;100115.47;5031656;28;20447;-66
2023/06/26 07:59:04;;;;;;;9.98;6.75;;;;;;;25.68;50.36;100110.28;5031561;28;20111;-67
2023/06/26 08:01:32;;;;;;;9.93;6.30;;;;;;;25.73;50.47;100111.59;5031832;28;20053;-67
2023/06/26 08:04:00;;;;;;;8.48;6.15;;;;;;;25.75;49.98;100109.53;5031689;28;20053;-67
2023/06/26 08:06:28;;;;;;;9.63;6.72;;;;;;;25.76;50.17;100116.69;5031667;28;20073;-67
2023/06/26 08:08:56;;;;;;;12.20;6.22;;;;;;;25.78;49.88;100114.63;5031916;28;20128;-68
2023/06/26 08:11:24;;;;;;;10.05;6.68;;;;;;;25.80;50.36;100113.38;5031603;28;20124;-67
2023/06/26 08:13:54;;;;;;;9.73;6.90;;;;;;;25.80;50.03;100112.53;5031360;28;20525;-67
2023/06/26 08:16:22;;;;;;;10.73;7.00;;;;;;;25.81;49.10;100114.22;5031202;28;20455;-68
2023/06/26 08:18:50;;;;;;;9.32;6.10;;;;;;;25.81;48.92;100109.59;5031346;28;20061;-67
2023/06/26 08:21:18;;;;;;;10.38;6.45;;;;;;;25.81;48.36;100114.22;5031266;28;20048;-68
2023/06/26 08:23:46;;;;;;;10.55;6.65;;;;;;;25.81;48.24;100108.75;5031246;28;20053;-67
2023/06/26 08:26:15;;;;;;;9.02;6.45;;;;;;;25.80;47.47;100112.53;5031308;28;20056;-67
2023/06/26 08:28:43;;;;;;;11.02;6.22;;;;;;;25.78;47.35;100117.34;5031360;28;20045;-67
2023/06/26 08:31:13;;;;;;;8.70;5.90;;;;;;;25.77;47.50;100112.91;5031077;28;20612;-67
2023/06/26 08:33:41;;;;;;;7.55;5.50;;;;;;;25.81;48.27;100106.03;5031351;28;20062;-67
2023/06/26 08:36:09;;;;;;;9.25;6.25;;;;;;;25.85;49.29;100108.16;5031141;28;20045;-67
2023/06/26 08:38:38;;;;;;;9.20;6.07;;;;;;;25.89;49.42;100105.91;5031229;28;20562;-67
2023/06/26 08:41:06;;;;;;;10.98;6.18;;;;;;;25.93;48.89;100104.47;5030994;28;20042;-68
2023/06/26 08:43:37;;;;;;;8.40;6.15;;;;;;;25.96;48.96;100106.78;5031276;28;20063;-67
2023/06/26 08:46:05;;;;;;;7.72;5.80;;;;;;;26.00;48.66;100110.84;5031117;28;20073;-66
2023/06/26 08:48:37;;;;;;;8.60;6.20;;;;;;;26.02;48.37;100110.63;5031107;28;20052;-67
2023/06/26 08:51:10;;;;;;;9.83;6.40;;;;;;;26.04;48.33;100109.41;5030828;28;20104;-67
2023/06/26 08:53:44;;;;;;;9.00;6.15;;;;;;;26.06;48.09;100103.75;5030831;28;20045;-66
2023/06/26 08:56:18;;;;;;;8.77;6.43;;;;;;;26.07;47.62;100106.28;5034822;28;20084;-66
2023/06/26 08:58:46;;;;;;;8.57;6.03;;;;;;;26.08;47.89;100110.72;5034800;28;20049;-67
2023/06/26 09:01:18;;;;;;;8.57;6.13;;;;;;;26.08;47.60;100099.78;5034862;28;20056;-67
2023/06/26 09:03:48;;;;;;;8.63;6.22;;;;;;;26.10;47.53;100105.88;5034487;28;20137;-68
2023/06/26 09:06:18;;;;;;;11.68;6.72;;;;;;;26.12;47.06;100100.22;5034802;28;20061;-68
2023/06/26 09:08:48;;;;;;;10.93;6.70;;;;;;;26.14;47.36;100098.97;5034771;28;20041;-67
2023/06/26 09:11:18;;;;;;;10.65;6.72;;;;;;;26.13;47.08;100094.56;5034883;28;20127;-67
2023/06/26 09:13:47;;;;;;;8.57;6.35;;;;;;;26.12;46.86;100101.06;5034521;28;20073;-67
2023/06/26 09:16:16;;;;;;;10.23;6.70;;;;;;;26.15;47.50;100100.69;5034610;28;20051;-67
2023/06/26 09:18:47;;;;;;;9.80;6.85;;;;;;;26.17;47.69;100097.75;5034127;28;20052;-67
2023/06/26 09:21:16;;;;;;;9.45;6.53;;;;;;;26.20;47.48;100100.09;5034786;28;20056;-68
2023/06/26 09:23:44;;;;;;;10.40;7.03;;;;;;;26.22;47.31;100101.56;5034561;28;20200;-66
2023/06/26 09:26:12;;;;;;;8.73;6.25;;;;;;;26.24;47.17;100095.91;5034320;28;20107;-66
2023/06/26 09:28:43;;;;;;;10.43;6.88;;;;;;;26.27;46.76;100098.25;5034576;28;20209;-67
2023/06/26 09:31:11;;;;;;;10.85;6.72;;;;;;;26.28;46.99;100099.09;5034337;28;20529;-67
2023/06/26 09:33:42;;;;;;;9.43;7.10;;;;;;;26.29;47.01;100106.25;5034285;28;20049;-67
2023/06/26 09:36:20;;;;;;;10.65;6.40;;;;;;;26.31;46.54;100095.97;5034031;28;20049;-67
2023/06/26 09:38:48;;;;;;;11.13;6.82;;;;;;;26.31;46.44;100093.22;5034088;28;20041;-66
2023/06/26 09:41:17;;;;;;;10.00;6.90;;;;;;;26.32;46.32;100086.72;5033931;28;20501;-66
2023/06/26 09:43:50;;;;;;;9.52;6.68;;;;;;;26.32;46.43;100081.25;5033830;28;20076;-68
2023/06/26 09:46:18;;;;;;;10.35;7.35;;;;;;;26.35;47.24;100094.53;5034435;28;20474;-68
2023/06/26 09:48:47;;;;;;;9.98;6.82;;;;;;;26.37;46.90;100092.44;5034443;28;20072;-68
2023/06/26 09:51:17;;;;;;;9.40;6.82;;;;;;;26.38;46.77;100089.53;5034131;28;20056;-68
2023/06/26 09:53:45;;;;;;;9.20;6.85;;;;;;;26.40;46.56;100089.34;5034246;28;20560;-68
2023/06/26 09:56:17;;;;;;;11.25;6.93;;;;;;;26.42;46.47;100085.34;5034967;28;20512;-68
2023/06/26 09:58:46;;;;;;;8.97;6.53;;;;;;;26.44;46.59;100088.75;5039215;28;20127;-67
2023/06/26 10:01:15;;;;;;;10.05;6.70;;;;;;;26.47;46.07;100090.25;5041195;28;20050;-67
2023/06/26 10:03:44;;;;;;;8.60;6.40;;;;;;;26.50;45.76;100073.44;5041458;28;20155;-67
2023/06/26 10:06:13;;;;;;;10.00;6.78;;;;;;;26.51;45.56;100077.84;5039854;28;20049;-67
2023/06/26 10:08:43;;;;;;;11.30;7.00;;;;;;;26.52;45.42;100074.91;5039942;28;20045;-68
2023/06/26 10:11:17;;;;;;;9.43;6.85;;;;;;;26.55;45.28;100068.22;5041898;28;20050;-67
2023/06/26 10:13:50;;;;;;;9.38;6.65;;;;;;;26.56;45.32;100069.91;5041368;28;20502;-67
2023/06/26 10:16:24;;;;;;;10.43;6.53;;;;;;;26.60;45.89;100064.88;5039712;28;20049;-67
2023/06/26 10:18:54;;;;;;;8.35;6.47;;;;;;;26.61;45.45;100067.41;5039169;28;20544;-67
2023/06/26 10:21:26;;;;;;;8.50;6.28;;;;;;;26.62;45.58;100060.88;5033719;28;20041;-68
2023/06/26 10:23:57;;;;;;;8.88;6.40;;;;;;;26.65;45.16;100068.69;5033368;28;20045;-66
2023/06/26 10:26:27;;;;;;;9.63;6.43;;;;;;;26.69;45.61;100056.28;5033400;28;20477;-67
2023/06/26 10:28:58;;;;;;;9.45;6.80;;;;;;;26.72;45.60;100060.50;5033209;28;20099;-67
2023/06/26 10:31:29;;;;;;;8.52;6.07;;;;;;;26.73;44.97;100057.59;5033252;28;20099;-66
2023/06/26 10:33:59;;;;;;;9.13;5.90;;;;;;;26.74;44.79;100063.91;5032976;28;20094;-67
2023/06/26 10:36:31;;;;;;;7.57;5.68;;;;;;;26.74;44.84;100056.56;5032942;28;20140;-67
2023/06/26 10:39:05;;;;;;;11.20;6.32;;;;;;;26.73;44.73;100052.13;5032965;28;20057;-67
2023/06/26 10:41:38;;;;;;;7.50;6.10;;;;;;;26.74;44.78;100061.19;5033208;28;20133;-68
2023/06/26 10:44:18;;;;;;;;;;;;;;;26.75;44.15;100062.88;5033164;28;20502;-67
2023/06/26 10:46:52;;;;;;;8.35;6.10;;;;;;;26.75;44.15;100058.25;5033034;28;19921;-67
2023/06/26 10:49:21;;;;;;;8.85;6.15;;;;;;;26.77;44.35;100052.56;5032883;28;20049;-67
2023/06/26 10:51:50;;;;;;;8.50;5.95;;;;;;;26.76;44.54;100054.44;5032776;28;20057;-67
2023/06/26 10:54:20;;;;;;;8.55;6.30;;;;;;;26.77;44.22;100050.66;5032648;28;20054;-67
2023/06/26 10:56:50;;;;;;;8.23;6.40;;;;;;;26.78;44.12;100048.78;5032483;28;20497;-67
2023/06/26 10:59:20;;;;;;;8.98;6.32;;;;;;;26.79;44.67;100055.94;5032571;28;20053;-67
2023/06/26 11:01:56;;;;;;;8.90;6.07;;;;;;;26.82;44.48;100058.25;5032738;28;20042;-67
2023/06/26 11:04:39;;;;;;;8.75;6.38;;;;;;;26.84;44.45;100052.59;5032547;28;20050;-67
2023/06/26 11:07:19;;;;;;;10.20;6.45;;;;;;;26.88;43.85;100049.25;5032482;28;20065;-67
2023/06/26 11:10:00;;;;;;;9.18;6.55;;;;;;;26.90;44.46;100054.50;5032376;28;20045;-67
2023/06/26 11:12:39;;;;;;;7.93;6.43;;;;;;;26.91;44.44;100056.19;5032335;28;20136;-67
2023/06/26 11:15:11;;;;;;;8.05;6.10;;;;;;;26.94;43.71;100058.56;5032297;28;20042;-67
2023/06/26 11:17:40;;;;;;;9.70;6.50;;;;;;;26.95;44.22;100041.91;5031316;28;20049;-67
2023/06/26 11:20:10;;;;;;;8.23;6.07;;;;;;;26.98;44.19;100046.97;5032081;28;20045;-67
2023/06/26 11:22:40;;;;;;;8.52;6.28;;;;;;;27.03;43.77;100043.69;5032300;28;20453;-67
2023/06/26 11:25:12;;;;;;;9.30;6.10;;;;;;;27.07;43.92;100037.56;5031914;28;20053;-67
2023/06/26 11:27:40;;;;;;;7.55;5.72;;;;;;;27.08;43.53;100041.16;5032113;28;20049;-66
2023/06/26 11:30:11;;;;;;;8.52;6.05;;;;;;;27.10;43.84;100039.06;5031831;28;20144;-67
2023/06/26 11:32:40;;;;;;;8.60;6.38;;;;;;;27.10;43.74;100039.06;5032114;28;20103;-67
2023/06/26 11:35:09;;;;;;;7.90;6.00;;;;;;;27.11;44.04;100040.72;5031887;28;20085;-66
2023/06/26 11:37:37;;;;;;;7.80;5.88;;;;;;;27.12;43.59;100042.44;5032008;28;20049;-67
2023/06/26 11:40:21;;;;;;;7.65;5.50;;;;;;;27.14;43.58;100039.50;5031682;28;20486;-66